Time;durP1;ratioP1;P1;durP2;ratioP2;P2;SDS_P1;SDS_P2;PMS_P1;PMS_P2;Temp;Humidity;BMP_temperature;BMP_pressure;BME280_temperature;BME280_humidity;BME280_pressure;Samples;Min_cycle;Max_cycle;Signal;HPM_P1;HPM_P2
2021/08/09 00:01:23;;;;;;;5.20;0.85;;;;;;;;;;5007230;28;20591;-56
2021/08/09 00:03:49;;;;;;;4.43;0.75;;;;;;;;;;5009206;28;20091;-56
2021/08/09 00:06:15;;;;;;;8.85;0.82;;;;;;;;;;5008567;28;20029;-56
2021/08/09 00:08:41;;;;;;;2.55;0.80;;;;;;;;;;5006980;28;21018;-56
2021/08/09 00:11:07;;;;;;;2.17;0.68;;;;;;;;;;5006775;28;20092;-55
2021/08/09 00:13:33;;;;;;;2.92;0.88;;;;;;;;;;5006817;28;20068;-56
2021/08/09 00:15:58;;;;;;;2.20;0.73;;;;;;;;;;5006814;28;20041;-54
2021/08/09 00:18:25;;;;;;;2.88;0.85;;;;;;;;;;5005662;28;20315;-56
2021/08/09 00:20:52;;;;;;;2.30;0.82;;;;;;;;;;5008274;28;20046;-55
2021/08/09 00:23:18;;;;;;;6.55;1.00;;;;;;;;;;5006591;28;20670;-56
2021/08/09 00:25:44;;;;;;;3.28;1.00;;;;;;;;;;5006528;28;20037;-56
2021/08/09 00:28:10;;;;;;;2.60;0.88;;;;;;;;;;5007217;28;20061;-56
2021/08/09 00:30:36;;;;;;;2.40;0.80;;;;;;;;;;5006837;28;20037;-56
2021/08/09 00:33:01;;;;;;;3.72;1.02;;;;;;;;;;5007982;28;20046;-56
2021/08/09 00:35:28;;;;;;;4.30;0.80;;;;;;;;;;5005473;28;20119;-56
2021/08/09 00:37:54;;;;;;;4.15;0.70;;;;;;;;;;4993189;28;20033;-56
2021/08/09 00:40:19;;;;;;;2.88;0.70;;;;;;;;;;5005929;28;20051;-53
2021/08/09 00:42:45;;;;;;;3.67;0.77;;;;;;;;;;5006772;28;20041;-55
2021/08/09 00:45:11;;;;;;;2.22;0.68;;;;;;;;;;5005128;28;20045;-56
2021/08/09 00:47:37;;;;;;;1.60;0.60;;;;;;;;;;5007253;28;20824;-57
2021/08/09 00:50:03;;;;;;;3.97;1.05;;;;;;;;;;5006943;28;20033;-53
2021/08/09 00:52:29;;;;;;;2.50;0.70;;;;;;;;;;5005047;28;20050;-57
2021/08/09 00:54:55;;;;;;;2.88;0.73;;;;;;;;;;5007620;28;20751;-55
2021/08/09 00:57:21;;;;;;;3.10;1.10;;;;;;;;;;5006717;28;20045;-53
2021/08/09 00:59:47;;;;;;;4.50;1.67;;;;;;;;;;5006234;28;20041;-55
2021/08/09 01:02:13;;;;;;;4.68;1.10;;;;;;;;;;5006800;28;20037;-55
2021/08/09 01:04:38;;;;;;;8.30;1.13;;;;;;;;;;5005924;28;20046;-56
2021/08/09 01:07:06;;;;;;;3.50;0.98;;;;;;;;;;5007136;28;20454;-55
2021/08/09 01:09:32;;;;;;;2.90;1.08;;;;;;;;;;5005565;28;20385;-56
2021/08/09 01:12:06;;;;;;;4.15;0.82;;;;;;;;;;5006368;28;20061;-56
2021/08/09 01:14:51;;;;;;;3.08;0.90;;;;;;;;;;5005728;28;20052;-56
2021/08/09 01:17:18;;;;;;;2.30;0.70;;;;;;;;;;5006425;28;20048;-55
2021/08/09 01:19:49;;;;;;;1.75;0.77;;;;;;;;;;5005139;28;20060;-56
2021/08/09 01:22:15;;;;;;;2.78;0.70;;;;;;;;;;5005513;28;20358;-54
2021/08/09 01:24:47;;;;;;;2.70;0.68;;;;;;;;;;5005607;28;20042;-54
2021/08/09 01:27:22;;;;;;;3.78;0.70;;;;;;;;;;5006330;28;20054;-56
2021/08/09 01:29:48;;;;;;;2.05;0.70;;;;;;;;;;5008748;28;20128;-59
2021/08/09 01:32:17;;;;;;;3.85;0.90;;;;;;;;;;5005967;28;20131;-58
2021/08/09 01:34:43;;;;;;;7.35;1.05;;;;;;;;;;5005472;28;20547;-59
2021/08/09 01:37:09;;;;;;;2.60;0.70;;;;;;;;;;5007220;28;20050;-58
2021/08/09 01:39:36;;;;;;;2.80;0.75;;;;;;;;;;4990357;28;20049;-58
2021/08/09 01:42:02;;;;;;;2.13;0.60;;;;;;;;;;5005582;28;20041;-58
2021/08/09 01:44:27;;;;;;;5.57;0.90;;;;;;;;;;5005273;28;20042;-59
2021/08/09 01:46:53;;;;;;;1.85;0.60;;;;;;;;;;5006821;28;20038;-56
2021/08/09 01:49:20;;;;;;;2.30;0.57;;;;;;;;;;5006527;28;20049;-56
2021/08/09 01:51:45;;;;;;;3.00;0.70;;;;;;;;;;5004616;28;20053;-55
2021/08/09 01:54:12;;;;;;;2.08;0.70;;;;;;;;;;5005834;28;20159;-55
2021/08/09 01:56:39;;;;;;;3.30;0.90;;;;;;;;;;5002956;28;20355;-55
2021/08/09 01:59:05;;;;;;;2.22;0.70;;;;;;;;;;5004303;28;20041;-55
2021/08/09 02:01:31;;;;;;;2.08;0.60;;;;;;;;;;5005087;28;20052;-54
2021/08/09 02:03:56;;;;;;;3.00;1.10;;;;;;;;;;5006257;28;20048;-53
2021/08/09 02:06:22;;;;;;;3.00;1.10;;;;;;;;;;5004908;28;20512;-56
2021/08/09 02:08:48;;;;;;;3.97;1.88;;;;;;;;;;5008785;28;20141;-56
2021/08/09 02:11:16;;;;;;;7.35;2.42;;;;;;;;;;5007064;28;20096;-57
2021/08/09 02:13:50;;;;;;;4.72;1.75;;;;;;;;;;5004340;28;20103;-52
2021/08/09 02:16:19;;;;;;;6.15;1.30;;;;;;;;;;5005686;28;20045;-57
2021/08/09 02:18:45;;;;;;;2.95;1.10;;;;;;;;;;5005232;28;20099;-54
2021/08/09 02:21:12;;;;;;;3.72;0.95;;;;;;;;;;5005982;28;20037;-55
2021/08/09 02:23:38;;;;;;;2.85;0.75;;;;;;;;;;5005191;28;20049;-55
2021/08/09 02:26:05;;;;;;;4.72;1.00;;;;;;;;;;5005703;28;20049;-55
2021/08/09 02:28:31;;;;;;;2.08;0.73;;;;;;;;;;5006399;28;20066;-52
2021/08/09 02:30:59;;;;;;;2.97;0.82;;;;;;;;;;5007589;28;20092;-54
2021/08/09 02:33:26;;;;;;;3.20;0.85;;;;;;;;;;5006033;28;20037;-57
2021/08/09 02:35:52;;;;;;;2.40;0.85;;;;;;;;;;5006131;28;20774;-57
2021/08/09 02:38:18;;;;;;;2.47;0.68;;;;;;;;;;5004727;28;20037;-57
2021/08/09 02:40:44;;;;;;;4.22;0.93;;;;;;;;;;5005258;28;20104;-57
2021/08/09 02:43:11;;;;;;;2.72;0.80;;;;;;;;;;5009830;28;20037;-57
2021/08/09 02:45:38;;;;;;;2.60;0.90;;;;;;;;;;5008662;28;20045;-57
2021/08/09 02:48:04;;;;;;;2.28;0.85;;;;;;;;;;4998012;28;20034;-56
2021/08/09 02:50:30;;;;;;;2.63;0.80;;;;;;;;;;5010772;28;20640;-57
2021/08/09 02:52:56;;;;;;;2.80;0.70;;;;;;;;;;5010800;28;20057;-58
2021/08/09 02:55:22;;;;;;;3.10;0.90;;;;;;;;;;5008636;28;20092;-56
2021/08/09 02:57:49;;;;;;;4.22;1.00;;;;;;;;;;5008562;28;20044;-57
2021/08/09 03:00:15;;;;;;;2.50;0.80;;;;;;;;;;5010054;28;20574;-56
2021/08/09 03:02:42;;;;;;;3.38;1.00;;;;;;;;;;5009142;28;20103;-56
2021/08/09 03:05:08;;;;;;;2.40;0.70;;;;;;;;;;5009052;28;20042;-58
2021/08/09 03:07:36;;;;;;;3.83;0.73;;;;;;;;;;5009684;28;20763;-56
2021/08/09 03:10:05;;;;;;;4.05;1.05;;;;;;;;;;5011528;28;20038;-55
2021/08/09 03:12:30;;;;;;;2.00;0.70;;;;;;;;;;5011428;28;20122;-55
2021/08/09 03:14:56;;;;;;;4.88;0.90;;;;;;;;;;5012155;28;20042;-54
2021/08/09 03:17:22;;;;;;;3.60;1.00;;;;;;;;;;5012116;28;20560;-53
2021/08/09 03:19:48;;;;;;;2.95;0.80;;;;;;;;;;5012685;28;20722;-55
2021/08/09 03:22:14;;;;;;;3.00;0.80;;;;;;;;;;5013117;28;20044;-53
2021/08/09 03:24:39;;;;;;;3.25;0.60;;;;;;;;;;5000624;28;20045;-56
2021/08/09 03:27:05;;;;;;;2.58;0.80;;;;;;;;;;5012057;28;20115;-52
2021/08/09 03:29:31;;;;;;;2.72;0.70;;;;;;;;;;5011483;28;20165;-55
2021/08/09 03:31:57;;;;;;;3.38;0.90;;;;;;;;;;5012041;28;20053;-57
2021/08/09 03:34:23;;;;;;;2.75;0.80;;;;;;;;;;5010690;28;20065;-58
2021/08/09 03:36:51;;;;;;;3.28;0.70;;;;;;;;;;5012578;28;20485;-54
2021/08/09 03:39:17;;;;;;;2.80;0.80;;;;;;;;;;5011638;28;20091;-54
2021/08/09 03:41:43;;;;;;;2.78;1.00;;;;;;;;;;5010173;28;20049;-54
2021/08/09 03:44:09;;;;;;;3.38;1.02;;;;;;;;;;4995850;28;20088;-53
2021/08/09 03:46:35;;;;;;;3.22;0.95;;;;;;;;;;5012734;28;20278;-55
2021/08/09 03:49:07;;;;;;;2.10;0.70;;;;;;;;;;5011628;28;20693;-55
2021/08/09 03:51:34;;;;;;;2.28;0.70;;;;;;;;;;5013149;28;20506;-54
2021/08/09 03:53:59;;;;;;;4.07;1.00;;;;;;;;;;5010039;28;20071;-55
2021/08/09 03:56:25;;;;;;;3.10;0.80;;;;;;;;;;5011856;28;20033;-54
2021/08/09 03:58:51;;;;;;;2.42;0.63;;;;;;;;;;5010310;28;20053;-54
2021/08/09 04:01:17;;;;;;;4.07;0.70;;;;;;;;;;5011388;28;20147;-54
2021/08/09 04:03:43;;;;;;;2.40;0.70;;;;;;;;;;5009781;28;20030;-52
2021/08/09 04:06:09;;;;;;;3.97;0.80;;;;;;;;;;4992734;28;20041;-54
2021/08/09 04:08:34;;;;;;;2.40;0.80;;;;;;;;;;5006965;28;20034;-55
2021/08/09 04:11:00;;;;;;;3.15;0.80;;;;;;;;;;5008031;28;20042;-55
2021/08/09 04:13:26;;;;;;;2.53;0.80;;;;;;;;;;5007444;28;21578;-55
2021/08/09 04:15:52;;;;;;;2.70;0.70;;;;;;;;;;4984997;28;20506;-55
2021/08/09 04:18:18;;;;;;;3.03;0.80;;;;;;;;;;5006470;28;20106;-53
2021/08/09 04:20:43;;;;;;;3.25;0.90;;;;;;;;;;5006019;28;20044;-55
2021/08/09 04:23:09;;;;;;;2.55;0.77;;;;;;;;;;5006395;28;20490;-55
2021/08/09 04:25:35;;;;;;;2.30;0.80;;;;;;;;;;5003437;28;20128;-55
2021/08/09 04:28:01;;;;;;;2.40;0.90;;;;;;;;;;5003009;28;20565;-54
2021/08/09 04:30:27;;;;;;;2.58;0.90;;;;;;;;;;5001499;28;20452;-54
2021/08/09 04:32:52;;;;;;;2.58;0.80;;;;;;;;;;5003451;28;20621;-51
2021/08/09 04:35:18;;;;;;;2.80;0.90;;;;;;;;;;5000635;28;20069;-54
2021/08/09 04:37:44;;;;;;;2.90;0.88;;;;;;;;;;5004660;28;20594;-54
2021/08/09 04:40:10;;;;;;;2.60;0.80;;;;;;;;;;5007835;28;20060;-55
2021/08/09 04:42:37;;;;;;;5.60;1.13;;;;;;;;;;5007926;28;20084;-53
2021/08/09 04:45:03;;;;;;;2.80;0.82;;;;;;;;;;5008083;28;20335;-54
2021/08/09 04:47:28;;;;;;;2.22;0.80;;;;;;;;;;5005800;28;20050;-53
2021/08/09 04:49:54;;;;;;;2.85;0.80;;;;;;;;;;5008097;28;20050;-54
2021/08/09 04:52:20;;;;;;;1.85;0.60;;;;;;;;;;5008095;28;20494;-55
2021/08/09 04:54:46;;;;;;;2.05;0.70;;;;;;;;;;5007901;28;20112;-55
2021/08/09 04:57:11;;;;;;;2.72;0.85;;;;;;;;;;5008974;28;20649;-54
2021/08/09 04:59:37;;;;;;;4.28;0.73;;;;;;;;;;5006880;28;20111;-52
2021/08/09 05:02:03;;;;;;;2.50;0.70;;;;;;;;;;5006805;28;20042;-55
2021/08/09 05:04:29;;;;;;;3.33;0.70;;;;;;;;;;5005706;28;20033;-55
2021/08/09 05:06:55;;;;;;;5.30;1.00;;;;;;;;;;5007081;28;20046;-55
2021/08/09 05:09:20;;;;;;;2.80;0.80;;;;;;;;;;5005968;28;20124;-54
2021/08/09 05:11:46;;;;;;;2.35;0.70;;;;;;;;;;5008326;28;20045;-55
2021/08/09 05:14:12;;;;;;;3.42;0.82;;;;;;;;;;5006509;28;20530;-55
2021/08/09 05:16:39;;;;;;;5.90;0.80;;;;;;;;;;5005976;28;20045;-54
2021/08/09 05:19:05;;;;;;;2.13;0.60;;;;;;;;;;5005317;28;20048;-53
2021/08/09 05:21:32;;;;;;;6.00;0.93;;;;;;;;;;5006886;28;20033;-55
2021/08/09 05:24:01;;;;;;;3.63;0.80;;;;;;;;;;5007439;28;20048;-55
2021/08/09 05:26:27;;;;;;;2.08;0.63;;;;;;;;;;5006915;28;20061;-55
2021/08/09 05:28:52;;;;;;;5.13;0.90;;;;;;;;;;5007236;28;20088;-53
2021/08/09 05:31:18;;;;;;;3.05;0.75;;;;;;;;;;5005932;28;20048;-55
2021/08/09 05:33:44;;;;;;;2.67;0.50;;;;;;;;;;5006039;28;20044;-53
2021/08/09 05:36:10;;;;;;;3.30;0.88;;;;;;;;;;5007446;28;20046;-54
2021/08/09 05:38:36;;;;;;;2.30;0.70;;;;;;;;;;5005823;28;20041;-55
2021/08/09 05:41:02;;;;;;;2.78;0.63;;;;;;;;;;5007114;28;20666;-55
2021/08/09 05:43:29;;;;;;;1.90;0.70;;;;;;;;;;5007911;28;20038;-55
2021/08/09 05:45:54;;;;;;;2.72;0.70;;;;;;;;;;5007350;28;20041;-54
2021/08/09 05:48:20;;;;;;;5.22;0.70;;;;;;;;;;5005508;28;20029;-55
2021/08/09 05:50:46;;;;;;;2.10;0.57;;;;;;;;;;5007860;28;20041;-55
2021/08/09 05:53:12;;;;;;;2.35;0.75;;;;;;;;;;5005689;28;20050;-54
2021/08/09 05:55:37;;;;;;;2.30;0.80;;;;;;;;;;5006027;28;20179;-55
2021/08/09 05:58:03;;;;;;;4.30;0.77;;;;;;;;;;5004977;28;20125;-55
2021/08/09 06:00:29;;;;;;;4.13;0.90;;;;;;;;;;5006053;28;20056;-55
2021/08/09 06:02:55;;;;;;;4.32;0.80;;;;;;;;;;5007349;28;20037;-55
2021/08/09 06:05:21;;;;;;;3.30;0.68;;;;;;;;;;5005030;28;20132;-54
2021/08/09 06:07:46;;;;;;;2.53;0.73;;;;;;;;;;5005132;28;20078;-53
2021/08/09 06:10:12;;;;;;;2.60;0.70;;;;;;;;;;5005410;28;20185;-54
2021/08/09 06:12:38;;;;;;;3.45;0.65;;;;;;;;;;5004317;28;20049;-54
2021/08/09 06:15:05;;;;;;;3.10;0.77;;;;;;;;;;5007794;28;20034;-55
2021/08/09 06:17:32;;;;;;;2.42;0.63;;;;;;;;;;4995779;28;20072;-54
2021/08/09 06:19:57;;;;;;;2.58;0.70;;;;;;;;;;4995312;28;20045;-50
2021/08/09 06:22:23;;;;;;;2.20;0.63;;;;;;;;;;5009014;28;20046;-52
2021/08/09 06:24:49;;;;;;;2.83;0.80;;;;;;;;;;5010129;28;20814;-57
2021/08/09 06:27:15;;;;;;;2.53;0.70;;;;;;;;;;5010201;28;20163;-54
2021/08/09 06:29:40;;;;;;;2.67;0.80;;;;;;;;;;5009728;28;20040;-56
2021/08/09 06:32:06;;;;;;;2.20;0.60;;;;;;;;;;5010932;28;20060;-56
2021/08/09 06:34:32;;;;;;;4.85;0.80;;;;;;;;;;5010907;28;20049;-54
2021/08/09 06:36:58;;;;;;;2.92;0.75;;;;;;;;;;5011653;28;20057;-54
2021/08/09 06:39:24;;;;;;;2.28;0.70;;;;;;;;;;5011880;28;20515;-56
2021/08/09 06:41:50;;;;;;;2.17;0.70;;;;;;;;;;5012338;28;20517;-54
2021/08/09 06:44:15;;;;;;;2.20;0.60;;;;;;;;;;5011698;28;20033;-53
2021/08/09 06:46:41;;;;;;;2.85;0.70;;;;;;;;;;5010015;28;20458;-52
2021/08/09 06:49:07;;;;;;;3.42;0.73;;;;;;;;;;5010182;28;20085;-54
2021/08/09 06:51:33;;;;;;;5.53;1.05;;;;;;;;;;5009217;28;20671;-51
2021/08/09 06:53:59;;;;;;;1.65;0.63;;;;;;;;;;5009457;28;20037;-55
2021/08/09 06:56:24;;;;;;;3.42;0.80;;;;;;;;;;5010773;28;20418;-54
2021/08/09 06:58:50;;;;;;;2.78;0.60;;;;;;;;;;5009579;28;20073;-55
2021/08/09 07:01:16;;;;;;;2.55;0.75;;;;;;;;;;5010384;28;20621;-55
2021/08/09 07:03:45;;;;;;;1.77;0.60;;;;;;;;;;5009336;28;20041;-53
2021/08/09 07:06:21;;;;;;;2.22;0.65;;;;;;;;;;5008665;28;20121;-55
2021/08/09 07:08:47;;;;;;;2.55;0.60;;;;;;;;;;5008468;28;20133;-55
2021/08/09 07:11:14;;;;;;;2.17;0.65;;;;;;;;;;5009293;28;20034;-54
2021/08/09 07:13:39;;;;;;;1.85;0.70;;;;;;;;;;5008938;28;20057;-53
2021/08/09 07:16:05;;;;;;;3.25;0.90;;;;;;;;;;5013203;28;20042;-53
2021/08/09 07:18:32;;;;;;;2.03;0.60;;;;;;;;;;5010817;28;20060;-55
2021/08/09 07:20:58;;;;;;;2.45;0.70;;;;;;;;;;5012601;28;20044;-54
2021/08/09 07:23:24;;;;;;;2.25;0.68;;;;;;;;;;5011594;28;20030;-55
2021/08/09 07:25:50;;;;;;;2.22;0.70;;;;;;;;;;5010158;28;20042;-53
2021/08/09 07:28:16;;;;;;;3.38;0.80;;;;;;;;;;5006980;28;20042;-54
2021/08/09 07:30:42;;;;;;;3.05;0.63;;;;;;;;;;5007932;28;20041;-55
2021/08/09 07:33:07;;;;;;;1.88;0.60;;;;;;;;;;5010263;28;20183;-55
2021/08/09 07:35:33;;;;;;;2.40;0.80;;;;;;;;;;5008149;28;20036;-52
2021/08/09 07:37:59;;;;;;;2.00;0.65;;;;;;;;;;5009829;28;20037;-54
2021/08/09 07:40:25;;;;;;;2.17;0.70;;;;;;;;;;5008312;28;20038;-52
2021/08/09 07:42:51;;;;;;;2.78;0.82;;;;;;;;;;5010340;28;20095;-53
2021/08/09 07:45:17;;;;;;;4.78;0.80;;;;;;;;;;5006722;28;20046;-54
2021/08/09 07:47:43;;;;;;;2.50;0.73;;;;;;;;;;5007496;28;20092;-55
2021/08/09 07:50:09;;;;;;;1.35;0.50;;;;;;;;;;5010676;28;20116;-52
2021/08/09 07:52:35;;;;;;;2.15;0.80;;;;;;;;;;5009223;28;20053;-52
2021/08/09 07:55:01;;;;;;;2.58;0.70;;;;;;;;;;5010274;28;20033;-54
2021/08/09 07:57:28;;;;;;;4.47;0.75;;;;;;;;;;5008578;28;20070;-55
2021/08/09 07:59:53;;;;;;;4.97;0.80;;;;;;;;;;5007732;28;20040;-55
2021/08/09 08:02:19;;;;;;;3.05;0.80;;;;;;;;;;5007694;28;20704;-53
2021/08/09 08:04:45;;;;;;;2.65;0.68;;;;;;;;;;5008949;28;20042;-53
2021/08/09 08:07:11;;;;;;;2.25;0.77;;;;;;;;;;5007011;28;20049;-55
2021/08/09 08:09:37;;;;;;;3.20;0.70;;;;;;;;;;5009189;28;20489;-55
2021/08/09 08:12:03;;;;;;;3.65;0.70;;;;;;;;;;5009822;28;20067;-54
2021/08/09 08:14:29;;;;;;;1.58;0.55;;;;;;;;;;5007693;28;20049;-56
2021/08/09 08:16:55;;;;;;;3.92;0.77;;;;;;;;;;5009248;28;20986;-56
2021/08/09 08:19:21;;;;;;;1.75;0.65;;;;;;;;;;5008257;28;20041;-55
2021/08/09 08:21:46;;;;;;;2.58;0.75;;;;;;;;;;5008407;28;20209;-54
2021/08/09 08:24:12;;;;;;;2.70;0.63;;;;;;;;;;5008821;28;20116;-55
2021/08/09 08:26:38;;;;;;;2.97;0.75;;;;;;;;;;5007317;28;20054;-56
2021/08/09 08:29:04;;;;;;;2.47;0.80;;;;;;;;;;5008154;28;20046;-55
2021/08/09 08:31:30;;;;;;;5.00;0.90;;;;;;;;;;5008028;28;20499;-55
2021/08/09 08:33:56;;;;;;;3.50;0.93;;;;;;;;;;5008743;28;20520;-56
2021/08/09 08:36:21;;;;;;;2.22;0.80;;;;;;;;;;5009035;28;20030;-54
2021/08/09 08:38:47;;;;;;;2.85;0.80;;;;;;;;;;5007353;28;20126;-54
2021/08/09 08:41:15;;;;;;;2.45;0.90;;;;;;;;;;5007716;28;21934;-52
2021/08/09 08:43:42;;;;;;;3.10;0.93;;;;;;;;;;5007516;28;20037;-54
2021/08/09 08:46:07;;;;;;;2.80;0.90;;;;;;;;;;5008791;28;20041;-54
2021/08/09 08:48:34;;;;;;;2.60;0.88;;;;;;;;;;5005875;28;20037;-52
2021/08/09 08:51:01;;;;;;;2.65;0.85;;;;;;;;;;5008304;28;20052;-53
2021/08/09 08:53:30;;;;;;;2.95;0.88;;;;;;;;;;5007777;28;20455;-52
2021/08/09 08:55:56;;;;;;;3.15;0.82;;;;;;;;;;5008210;28;20085;-54
2021/08/09 08:58:22;;;;;;;3.45;1.13;;;;;;;;;;5007726;28;20937;-52
2021/08/09 09:00:49;;;;;;;2.80;0.80;;;;;;;;;;5009708;28;20056;-53
2021/08/09 09:03:19;;;;;;;3.10;1.08;;;;;;;;;;5006824;28;20045;-54
2021/08/09 09:06:03;;;;;;;3.33;0.90;;;;;;;;;;5006111;28;20044;-52
2021/08/09 09:08:46;;;;;;;4.40;1.10;;;;;;;;;;5007232;28;20037;-52
2021/08/09 09:11:24;;;;;;;2.40;0.80;;;;;;;;;;5008120;28;20042;-54
2021/08/09 09:13:52;;;;;;;2.70;0.90;;;;;;;;;;5007044;28;20073;-63
2021/08/09 09:16:18;;;;;;;2.65;0.93;;;;;;;;;;5007688;28;20052;-54
2021/08/09 09:18:44;;;;;;;5.53;1.10;;;;;;;;;;5007013;28;20047;-54
2021/08/09 09:21:11;;;;;;;3.13;0.85;;;;;;;;;;5006223;28;20069;-53
2021/08/09 09:23:37;;;;;;;3.28;1.05;;;;;;;;;;5006806;28;20065;-54
2021/08/09 09:26:17;;;;;;;3.35;1.00;;;;;;;;;;4992552;28;20038;-52
2021/08/09 09:28:43;;;;;;;3.13;1.02;;;;;;;;;;5004005;28;20211;-54
2021/08/09 09:31:14;;;;;;;3.25;1.30;;;;;;;;;;5007078;28;20113;-55
2021/08/09 09:33:45;;;;;;;3.05;1.02;;;;;;;;;;5005378;28;20124;-55
2021/08/09 09:36:11;;;;;;;4.22;1.10;;;;;;;;;;5006636;28;20034;-55
2021/08/09 09:38:43;;;;;;;4.72;1.30;;;;;;;;;;5004989;28;20038;-55
2021/08/09 09:41:09;;;;;;;3.20;1.10;;;;;;;;;;5006272;28;20049;-54
2021/08/09 09:43:39;;;;;;;4.80;1.50;;;;;;;;;;5005147;28;20136;-55
2021/08/09 09:46:05;;;;;;;4.93;1.10;;;;;;;;;;5006615;28;20041;-55
2021/08/09 09:48:37;;;;;;;4.70;1.20;;;;;;;;;;5006698;28;20042;-54
2021/08/09 09:51:11;;;;;;;3.22;1.13;;;;;;;;;;5006782;28;20129;-55
2021/08/09 09:53:37;;;;;;;5.57;1.15;;;;;;;;;;5006432;28;20049;-56
2021/08/09 09:56:03;;;;;;;4.18;1.23;;;;;;;;;;5006648;28;20049;-55
2021/08/09 09:58:30;;;;;;;4.45;1.30;;;;;;;;;;5004941;28;20104;-53
2021/08/09 10:00:57;;;;;;;2.92;1.00;;;;;;;;;;5007346;28;20033;-54
2021/08/09 10:03:23;;;;;;;2.75;1.00;;;;;;;;;;5005438;28;20034;-53
2021/08/09 10:05:49;;;;;;;3.08;0.95;;;;;;;;;;5009006;28;20512;-54
2021/08/09 10:08:16;;;;;;;2.78;0.90;;;;;;;;;;5007217;28;20034;-55
2021/08/09 10:10:52;;;;;;;8.75;1.10;;;;;;;;;;5005778;28;20045;-54
2021/08/09 10:13:19;;;;;;;4.95;1.15;;;;;;;;;;5006692;28;20038;-56
2021/08/09 10:15:49;;;;;;;3.25;1.08;;;;;;;;;;4988244;28;20045;-53
2021/08/09 10:18:15;;;;;;;4.63;1.10;;;;;;;;;;5005025;28;20171;-55
2021/08/09 10:20:41;;;;;;;4.05;1.17;;;;;;;;;;5005128;28;20038;-55
2021/08/09 10:23:07;;;;;;;3.33;1.08;;;;;;;;;;5006383;28;20042;-54
2021/08/09 10:25:42;;;;;;;3.35;1.23;;;;;;;;;;5004889;28;20080;-54
2021/08/09 10:28:08;;;;;;;4.05;1.20;;;;;;;;;;5005563;28;20069;-55
2021/08/09 10:30:36;;;;;;;3.20;1.10;;;;;;;;;;5006541;28;20030;-55
2021/08/09 10:33:07;;;;;;;4.72;1.00;;;;;;;;;;5006062;28;20053;-54
2021/08/09 10:35:40;;;;;;;3.17;0.95;;;;;;;;;;5006583;28;20491;-53
2021/08/09 10:38:20;;;;;;;6.00;1.17;;;;;;;;;;5005978;28;20053;-55
2021/08/09 10:41:05;;;;;;;2.97;0.95;;;;;;;;;;5006608;28;20046;-54
2021/08/09 10:43:31;;;;;;;2.40;1.00;;;;;;;;;;5005566;28;20042;-53
2021/08/09 10:45:57;;;;;;;3.00;1.10;;;;;;;;;;5007436;28;20129;-55
2021/08/09 10:48:41;;;;;;;4.22;1.00;;;;;;;;;;5005017;28;20038;-53
2021/08/09 10:51:07;;;;;;;4.78;1.30;;;;;;;;;;5005812;28;20764;-52
2021/08/09 10:53:35;;;;;;;2.90;1.05;;;;;;;;;;5005700;28;20049;-55
2021/08/09 10:56:02;;;;;;;5.53;1.30;;;;;;;;;;5004974;28;20125;-52
2021/08/09 10:58:41;;;;;;;7.80;1.48;;;;;;;;;;5003963;28;20038;-54
2021/08/09 11:01:07;;;;;;;5.70;1.30;;;;;;;;;;5005661;28;20042;-54
2021/08/09 11:03:33;;;;;;;3.00;1.17;;;;;;;;;;5010088;28;20065;-53
2021/08/09 11:05:59;;;;;;;5.45;1.40;;;;;;;;;;5009096;28;20134;-55
2021/08/09 11:08:24;;;;;;;3.45;1.00;;;;;;;;;;5010709;28;20042;-52
2021/08/09 11:10:58;;;;;;;4.93;1.17;;;;;;;;;;5010099;28;20697;-53
2021/08/09 11:13:24;;;;;;;3.85;1.33;;;;;;;;;;5007656;28;20091;-54
2021/08/09 11:15:54;;;;;;;3.83;1.20;;;;;;;;;;5007881;28;20034;-54
2021/08/09 11:18:20;;;;;;;3.38;1.30;;;;;;;;;;5009337;28;20405;-54
2021/08/09 11:20:46;;;;;;;3.92;1.20;;;;;;;;;;5008880;28;20048;-53
2021/08/09 11:23:13;;;;;;;3.65;1.45;;;;;;;;;;5009770;28;20040;-55
2021/08/09 11:25:44;;;;;;;5.22;1.50;;;;;;;;;;5007835;28;20025;-55
2021/08/09 11:28:21;;;;;;;4.45;1.40;;;;;;;;;;5008013;28;20046;-54
2021/08/09 11:30:51;;;;;;;5.70;1.50;;;;;;;;;;5007788;28;20054;-54
2021/08/09 11:33:19;;;;;;;9.43;1.40;;;;;;;;;;5007626;28;20107;-55
2021/08/09 11:35:46;;;;;;;4.72;1.23;;;;;;;;;;5008872;28;20506;-54
2021/08/09 11:38:12;;;;;;;4.18;1.40;;;;;;;;;;5009058;28;20042;-52
2021/08/09 11:40:39;;;;;;;4.60;1.50;;;;;;;;;;5007571;28;20044;-53
2021/08/09 11:43:06;;;;;;;3.85;1.50;;;;;;;;;;5009450;28;20034;-55
2021/08/09 11:45:32;;;;;;;3.58;1.50;;;;;;;;;;5007283;28;20034;-54
2021/08/09 11:47:58;;;;;;;6.47;1.60;;;;;;;;;;5008279;28;20076;-52
2021/08/09 11:50:24;;;;;;;3.88;1.52;;;;;;;;;;5006536;28;20141;-56
2021/08/09 11:52:50;;;;;;;3.47;1.58;;;;;;;;;;5009014;28;20037;-54
2021/08/09 11:55:21;;;;;;;5.43;1.77;;;;;;;;;;5008861;28;20038;-54
2021/08/09 11:57:46;;;;;;;4.53;1.42;;;;;;;;;;5007903;28;20046;-52
2021/08/09 12:00:12;;;;;;;3.78;1.42;;;;;;;;;;5009405;28;20041;-53
2021/08/09 12:02:56;;;;;;;4.28;1.63;;;;;;;;;;5008446;28;20034;-54
2021/08/09 12:05:24;;;;;;;10.45;1.85;;;;;;;;;;5007978;28;20038;-55
2021/08/09 12:07:57;;;;;;;4.95;1.98;;;;;;;;;;5007731;28;20038;-52
2021/08/09 12:10:26;;;;;;;5.18;1.65;;;;;;;;;;5007704;28;20060;-54
2021/08/09 12:12:51;;;;;;;4.93;1.60;;;;;;;;;;5007518;28;20045;-55
2021/08/09 12:15:17;;;;;;;7.05;2.00;;;;;;;;;;5008549;28;20044;-54
2021/08/09 12:17:43;;;;;;;4.70;1.70;;;;;;;;;;5007541;28;20055;-54
2021/08/09 12:20:20;;;;;;;5.68;1.98;;;;;;;;;;5007195;28;20092;-53
2021/08/09 12:22:47;;;;;;;4.70;1.60;;;;;;;;;;5007983;28;20046;-55
2021/08/09 12:25:22;;;;;;;4.40;1.50;;;;;;;;;;5008668;28;20111;-57
2021/08/09 12:27:58;;;;;;;4.78;1.63;;;;;;;;;;5006344;28;20054;-54
2021/08/09 12:30:23;;;;;;;5.57;1.95;;;;;;;;;;5007291;28;20405;-54
2021/08/09 12:33:09;;;;;;;7.18;1.65;;;;;;;;;;5006737;28;20041;-56
2021/08/09 12:35:35;;;;;;;4.78;2.00;;;;;;;;;;5007642;28;20376;-57
2021/08/09 12:38:01;;;;;;;6.70;2.08;;;;;;;;;;5007846;28;20080;-57
2021/08/09 12:40:36;;;;;;;6.40;2.00;;;;;;;;;;5006821;28;20041;-57
2021/08/09 12:43:03;;;;;;;6.80;1.77;;;;;;;;;;5008254;28;20976;-55
2021/08/09 12:45:29;;;;;;;8.18;2.15;;;;;;;;;;5007853;28;20128;-58
2021/08/09 12:47:55;;;;;;;4.47;1.65;;;;;;;;;;5006299;28;20425;-57
2021/08/09 12:50:21;;;;;;;5.60;2.22;;;;;;;;;;5007964;28;20078;-57
2021/08/09 12:52:47;;;;;;;5.68;1.92;;;;;;;;;;5007862;28;20897;-57
2021/08/09 12:55:13;;;;;;;4.47;1.63;;;;;;;;;;5006085;28;20038;-57
2021/08/09 12:57:39;;;;;;;7.93;2.00;;;;;;;;;;5004964;28;20394;-58
2021/08/09 13:00:05;;;;;;;4.75;1.67;;;;;;;;;;5006925;28;20041;-57
2021/08/09 13:02:31;;;;;;;9.07;1.77;;;;;;;;;;5006763;28;20061;-56
2021/08/09 13:04:57;;;;;;;3.78;1.65;;;;;;;;;;5006201;28;20185;-57
2021/08/09 13:07:23;;;;;;;5.68;1.77;;;;;;;;;;5006011;28;20030;-58
2021/08/09 13:09:48;;;;;;;3.75;1.60;;;;;;;;;;5007285;28;20037;-57
2021/08/09 13:12:14;;;;;;;6.03;1.60;;;;;;;;;;5006470;28;20383;-55
2021/08/09 13:14:40;;;;;;;6.68;2.10;;;;;;;;;;5007197;28;20037;-57
2021/08/09 13:17:06;;;;;;;3.47;1.50;;;;;;;;;;5006658;28;20091;-53
2021/08/09 13:19:32;;;;;;;5.78;1.90;;;;;;;;;;5006687;28;20048;-55
2021/08/09 13:21:58;;;;;;;3.95;1.60;;;;;;;;;;5007303;28;20048;-55
2021/08/09 13:24:24;;;;;;;3.20;1.60;;;;;;;;;;5005948;28;20033;-51
2021/08/09 13:26:49;;;;;;;4.82;1.80;;;;;;;;;;5005786;28;20485;-54
2021/08/09 13:29:15;;;;;;;4.10;1.65;;;;;;;;;;5007027;28;20038;-54
2021/08/09 13:31:41;;;;;;;6.68;1.90;;;;;;;;;;5006959;28;20073;-52
2021/08/09 13:34:07;;;;;;;4.25;1.83;;;;;;;;;;5006694;28;20045;-51
2021/08/09 13:36:36;;;;;;;4.47;1.88;;;;;;;;;;5006301;28;20080;-54
2021/08/09 13:39:02;;;;;;;5.38;1.92;;;;;;;;;;5007259;28;20033;-52
2021/08/09 13:41:27;;;;;;;4.72;1.67;;;;;;;;;;5007542;28;20060;-52
2021/08/09 13:43:53;;;;;;;4.28;1.80;;;;;;;;;;5005803;28;20037;-53
2021/08/09 13:46:19;;;;;;;4.25;1.50;;;;;;;;;;5005050;28;20057;-54
2021/08/09 13:48:51;;;;;;;4.53;1.60;;;;;;;;;;5004523;28;20156;-55
2021/08/09 13:51:17;;;;;;;7.03;1.75;;;;;;;;;;5005696;28;20088;-54
2021/08/09 13:53:43;;;;;;;4.47;1.75;;;;;;;;;;5005888;28;20041;-54
2021/08/09 13:56:09;;;;;;;4.07;1.52;;;;;;;;;;5006342;28;20030;-52
2021/08/09 13:58:38;;;;;;;4.28;1.80;;;;;;;;;;5006288;28;20042;-53
2021/08/09 14:01:04;;;;;;;3.70;1.60;;;;;;;;;;5006994;28;20048;-52
2021/08/09 14:03:30;;;;;;;5.60;1.50;;;;;;;;;;5005914;28;20064;-53
2021/08/09 14:05:56;;;;;;;6.28;1.67;;;;;;;;;;5005416;28;20495;-54
2021/08/09 14:08:21;;;;;;;6.57;1.70;;;;;;;;;;5004779;28;20666;-54
2021/08/09 14:10:47;;;;;;;3.83;1.65;;;;;;;;;;5005866;28;20057;-54
2021/08/09 14:13:14;;;;;;;5.03;1.70;;;;;;;;;;5005721;28;20489;-53
2021/08/09 14:15:40;;;;;;;7.45;1.55;;;;;;;;;;5006189;28;20033;-53
2021/08/09 14:18:06;;;;;;;4.00;1.67;;;;;;;;;;5006489;28;20049;-53
2021/08/09 14:20:32;;;;;;;3.80;1.35;;;;;;;;;;5005540;28;20966;-54
2021/08/09 14:22:58;;;;;;;3.97;1.52;;;;;;;;;;5006922;28;20097;-55
2021/08/09 14:25:24;;;;;;;5.43;1.65;;;;;;;;;;5002924;28;20037;-55
2021/08/09 14:27:50;;;;;;;3.97;1.63;;;;;;;;;;5005835;28;20052;-53
2021/08/09 14:30:16;;;;;;;3.28;1.33;;;;;;;;;;5005055;28;20045;-53
2021/08/09 14:32:41;;;;;;;5.32;1.65;;;;;;;;;;5005043;28;21999;-54
2021/08/09 14:35:07;;;;;;;6.97;1.40;;;;;;;;;;5007165;28;20042;-54
2021/08/09 14:37:33;;;;;;;4.20;1.80;;;;;;;;;;5008366;28;21081;-55
2021/08/09 14:39:59;;;;;;;4.25;1.60;;;;;;;;;;4996022;28;20030;-54
2021/08/09 14:42:25;;;;;;;4.45;1.65;;;;;;;;;;5008956;28;20103;-54